createdAt,value
2023-03-25T00:02:26.970Z,13.79
2023-03-25T00:04:56.811Z,13.75
2023-03-25T00:07:23.625Z,13.68
2023-03-25T00:09:50.329Z,13.61
2023-03-25T00:12:18.873Z,13.52
2023-03-25T00:14:54.104Z,13.48
2023-03-25T00:17:22.342Z,13.45
2023-03-25T00:19:49.894Z,13.44
2023-03-25T00:22:18.009Z,13.41
2023-03-25T00:24:44.822Z,13.40
2023-03-25T00:27:13.641Z,13.39
2023-03-25T00:29:43.736Z,13.39
2023-03-25T00:32:12.194Z,13.39
2023-03-25T00:34:46.457Z,13.40
2023-03-25T00:37:17.450Z,13.40
2023-03-25T00:39:45.103Z,13.39
2023-03-25T00:42:15.836Z,13.38
2023-03-25T00:44:43.138Z,13.34
2023-03-25T00:47:11.291Z,13.32
2023-03-25T00:49:37.972Z,13.30
2023-03-25T00:52:04.578Z,13.30
2023-03-25T00:54:33.536Z,13.33
2023-03-25T00:57:00.343Z,13.31
2023-03-25T00:59:27.011Z,13.32
2023-03-25T01:01:55.610Z,13.36
2023-03-25T01:04:22.359Z,13.38
2023-03-25T01:06:51.274Z,13.39
2023-03-25T01:09:19.185Z,13.40
2023-03-25T01:11:47.273Z,13.41
2023-03-25T01:14:17.539Z,13.39
2023-03-25T01:16:45.016Z,13.36
2023-03-25T01:19:13.863Z,13.34
2023-03-25T01:21:41.156Z,13.33
2023-03-25T01:24:11.968Z,13.27
2023-03-25T01:26:40.693Z,13.22
2023-03-25T01:29:07.488Z,13.17
2023-03-25T01:31:34.228Z,13.14
2023-03-25T01:34:01.261Z,13.12
2023-03-25T01:36:28.937Z,13.07
2023-03-25T01:38:58.381Z,13.07
2023-03-25T01:41:29.217Z,13.07
2023-03-25T01:44:18.024Z,13.05
2023-03-25T01:46:46.376Z,13.06
2023-03-25T01:49:23.067Z,13.06
2023-03-25T01:51:54.617Z,13.09
2023-03-25T01:54:21.593Z,13.12
2023-03-25T01:56:50.080Z,13.18
2023-03-25T01:59:19.502Z,13.18
2023-03-25T02:01:46.563Z,13.12
2023-03-25T02:04:22.099Z,13.04
2023-03-25T02:06:53.385Z,12.98
2023-03-25T02:09:24.087Z,12.90
2023-03-25T02:11:54.072Z,12.82
2023-03-25T02:14:26.321Z,12.73
2023-03-25T02:17:14.407Z,12.63
2023-03-25T02:20:05.876Z,12.54
2023-03-25T02:22:49.129Z,12.45
2023-03-25T02:25:49.745Z,12.41
2023-03-25T02:28:55.507Z,12.39
2023-03-25T02:31:56.290Z,12.34
2023-03-25T02:35:11.797Z,12.32
2023-03-25T02:38:08.547Z,12.32
2023-03-25T02:40:38.891Z,12.32
2023-03-25T02:43:13.612Z,12.34
2023-03-25T02:45:49.469Z,12.34
2023-03-25T02:48:25.197Z,12.38
2023-03-25T02:50:56.742Z,12.42
2023-03-25T02:53:35.503Z,12.41
2023-03-25T02:56:10.277Z,12.40
2023-03-25T02:58:39.522Z,12.37
2023-03-25T03:01:09.429Z,12.35
2023-03-25T03:03:36.562Z,12.37
2023-03-25T03:06:06.017Z,12.37
2023-03-25T03:08:48.401Z,12.36
2023-03-25T03:11:17.203Z,12.38
2023-03-25T03:14:05.643Z,12.39
2023-03-25T03:16:38.699Z,12.41
2023-03-25T03:19:50.031Z,12.41
2023-03-25T03:22:26.928Z,12.41
2023-03-25T03:25:15.034Z,12.38
2023-03-25T03:28:03.962Z,12.37
2023-03-25T03:30:46.109Z,12.39
2023-03-25T03:33:29.932Z,12.35
2023-03-25T03:36:15.188Z,12.30
2023-03-25T03:38:49.530Z,12.21
2023-03-25T03:41:20.842Z,12.15
2023-03-25T03:44:07.488Z,12.11
2023-03-25T03:46:49.523Z,12.08
2023-03-25T03:49:20.366Z,12.07
2023-03-25T03:52:02.962Z,12.07
2023-03-25T03:54:42.312Z,12.06
2023-03-25T03:57:29.350Z,12.06
2023-03-25T04:00:09.271Z,12.04
2023-03-25T04:02:54.707Z,12.08
2023-03-25T04:05:30.387Z,12.09
2023-03-25T04:08:11.923Z,12.08
2023-03-25T04:10:54.561Z,12.07
2023-03-25T04:13:23.304Z,12.07
2023-03-25T04:15:50.304Z,12.03
2023-03-25T04:18:17.365Z,12.01
2023-03-25T04:20:49.216Z,12.01
2023-03-25T04:23:15.924Z,12.06
2023-03-25T04:25:47.066Z,12.07
2023-03-25T04:28:17.037Z,12.09
2023-03-25T04:30:48.056Z,12.08
2023-03-25T04:33:14.679Z,12.08
2023-03-25T04:35:41.419Z,12.06
2023-03-25T04:38:08.252Z,12.10
2023-03-25T04:40:34.984Z,12.07
2023-03-25T04:43:01.578Z,12.08
2023-03-25T04:45:30.022Z,12.07
2023-03-25T04:47:57.320Z,12.05
2023-03-25T04:50:27.688Z,12.01
2023-03-25T04:52:59.765Z,12.06
2023-03-25T04:55:26.920Z,12.11
2023-03-25T04:57:54.266Z,12.11
2023-03-25T05:00:23.879Z,12.08
2023-03-25T05:02:55.533Z,12.07
2023-03-25T05:05:24.931Z,12.05
2023-03-25T05:07:57.516Z,12.02
2023-03-25T05:10:25.845Z,12.01
2023-03-25T05:13:00.098Z,11.98
2023-03-25T05:15:27.742Z,11.93
2023-03-25T05:17:54.345Z,11.89
2023-03-25T05:20:21.946Z,11.86
2023-03-25T05:22:48.600Z,11.77
2023-03-25T05:25:15.288Z,11.81
2023-03-25T05:27:42.023Z,11.84
2023-03-25T05:30:09.531Z,11.88
2023-03-25T05:32:36.238Z,11.99
2023-03-25T05:35:03.852Z,12.07
2023-03-25T05:37:30.886Z,12.15
2023-03-25T05:39:57.486Z,12.25
2023-03-25T05:42:24.491Z,12.36
2023-03-25T05:44:52.854Z,12.53
2023-03-25T05:47:22.741Z,12.73
2023-03-25T05:49:50.661Z,12.98
2023-03-25T05:52:18.612Z,13.20
2023-03-25T05:54:51.076Z,13.41
2023-03-25T05:57:17.789Z,13.58
2023-03-25T05:59:44.883Z,13.68
2023-03-25T06:02:13.951Z,13.75
2023-03-25T06:04:42.092Z,13.79
2023-03-25T06:07:19.315Z,13.76
2023-03-25T06:09:47.058Z,13.76
2023-03-25T06:12:16.085Z,13.77
2023-03-25T06:14:45.224Z,13.81
2023-03-25T06:17:18.405Z,13.83
2023-03-25T06:19:45.369Z,13.83
2023-03-25T06:22:12.391Z,13.83
2023-03-25T06:24:40.698Z,13.83
2023-03-25T06:27:12.870Z,13.78
2023-03-25T06:29:42.358Z,13.73
2023-03-25T06:32:12.431Z,13.68
2023-03-25T06:34:41.988Z,13.62
2023-03-25T06:37:09.068Z,13.55
2023-03-25T06:39:37.087Z,13.51
2023-03-25T06:42:10.930Z,13.52
2023-03-25T06:44:50.056Z,13.51
2023-03-25T06:47:35.337Z,13.52
2023-03-25T06:50:02.110Z,13.54
2023-03-25T06:52:28.908Z,13.56
2023-03-25T06:54:55.800Z,13.63
2023-03-25T06:57:22.518Z,13.66
2023-03-25T06:59:49.236Z,13.72
2023-03-25T07:02:16.088Z,13.72
2023-03-25T07:04:42.726Z,13.77
2023-03-25T07:07:09.617Z,13.81
2023-03-25T07:09:36.391Z,13.86
2023-03-25T07:12:03.569Z,13.89
2023-03-25T07:14:30.188Z,13.87
2023-03-25T07:16:56.708Z,13.91
2023-03-25T07:19:23.271Z,13.90
2023-03-25T07:21:50.226Z,13.88
2023-03-25T07:24:16.844Z,13.90
2023-03-25T07:26:43.566Z,13.95
2023-03-25T07:29:10.655Z,13.97
2023-03-25T07:31:38.838Z,14.00
2023-03-25T07:34:07.197Z,14.04
2023-03-25T07:36:33.908Z,14.10
2023-03-25T07:39:00.679Z,14.14
2023-03-25T07:41:27.364Z,14.20
2023-03-25T07:44:09.373Z,14.31
2023-03-25T07:46:37.136Z,14.37
2023-03-25T07:49:03.684Z,14.41
2023-03-25T07:51:32.473Z,14.45
2023-03-25T07:54:05.096Z,14.48
2023-03-25T07:56:33.812Z,14.52
2023-03-25T07:59:00.808Z,14.49
2023-03-25T08:01:27.618Z,14.50
2023-03-25T08:03:54.262Z,14.55
2023-03-25T08:06:20.850Z,14.59
2023-03-25T08:08:47.486Z,14.64
2023-03-25T08:11:14.392Z,14.66
2023-03-25T08:13:41.028Z,14.70
2023-03-25T08:16:14.675Z,14.73
2023-03-25T08:18:44.291Z,14.74
2023-03-25T08:21:12.206Z,14.77
2023-03-25T08:23:38.875Z,14.78
2023-03-25T08:26:05.877Z,14.82
2023-03-25T08:28:32.772Z,14.86
2023-03-25T08:31:01.728Z,14.86
2023-03-25T08:33:33.445Z,14.87
2023-03-25T08:36:01.401Z,14.84
2023-03-25T08:38:33.738Z,14.89
2023-03-25T08:41:02.680Z,14.89
2023-03-25T08:43:29.316Z,14.88
2023-03-25T08:45:55.999Z,14.85
2023-03-25T08:48:24.232Z,14.82
2023-03-25T08:50:50.898Z,14.77
2023-03-25T08:53:17.428Z,14.80
2023-03-25T08:55:44.172Z,14.88
2023-03-25T08:58:10.943Z,14.94
2023-03-25T09:00:38.029Z,14.94
2023-03-25T09:03:05.622Z,14.97
2023-03-25T09:05:32.415Z,15.02
2023-03-25T09:07:59.060Z,15.11
2023-03-25T09:10:26.428Z,15.18
2023-03-25T09:12:53.246Z,15.18
2023-03-25T09:15:20.503Z,15.09
2023-03-25T09:17:47.451Z,14.98
2023-03-25T09:20:14.705Z,14.90
2023-03-25T09:22:41.488Z,14.85
2023-03-25T09:25:08.995Z,14.80
2023-03-25T09:27:36.355Z,14.81
2023-03-25T09:30:04.160Z,14.80
2023-03-25T09:32:30.772Z,14.72
2023-03-25T09:34:57.411Z,14.63
2023-03-25T09:37:24.181Z,14.59
2023-03-25T09:39:50.859Z,14.58
2023-03-25T09:42:23.537Z,14.62
2023-03-25T09:45:02.950Z,14.60
2023-03-25T09:47:34.605Z,14.59
2023-03-25T09:50:10.633Z,14.65
2023-03-25T09:53:09.616Z,14.67
2023-03-25T09:55:41.292Z,14.74
2023-03-25T09:58:23.097Z,14.77
2023-03-25T10:01:13.783Z,14.83
2023-03-25T10:03:58.317Z,14.89
2023-03-25T10:06:26.093Z,15.00
2023-03-25T10:09:15.564Z,15.14
2023-03-25T10:12:31.673Z,15.33
2023-03-25T10:15:16.776Z,15.52
2023-03-25T10:18:14.310Z,15.61
2023-03-25T10:20:56.786Z,15.72
2023-03-25T10:23:41.550Z,15.70
2023-03-25T10:26:26.742Z,15.64
2023-03-25T10:29:03.342Z,15.57
2023-03-25T10:31:36.426Z,15.59
2023-03-25T10:34:16.155Z,15.59
2023-03-25T10:36:48.952Z,15.52
2023-03-25T10:39:21.095Z,15.50
2023-03-25T10:41:55.709Z,15.52
2023-03-25T10:44:26.516Z,15.63
2023-03-25T10:46:59.155Z,15.72
